Dana, Indiana
Current Conditions -  °F | °C
As of 9:55 PM on Monday 22 Dec 2014 (Local Time) from KPRG Reporting Station
Overcast Overcast  
Wind Chill: 41°   Ceiling: 1700
Heat Index: 46°   Visibility: 10mi
Dew Point: 45°   Wind: 9mph
Humidity: 99%   Direction: 130°SE
Pressure: 29.62"   Gusts: NA
Location:  39.81°N, 87.5°W
Report Text: KPRG 230255Z AUTO 13008KT 10SM OVC017 08/07 A2962 RMK AO2 P0001 60006 T00750074
Loading
Personal Weather Stations






























Interactive Weather Map New forecast layout! Learn more

10-Day Weather Forecast

Advertisements
Track Severe Weather on mobile